메인 페이지
METAR-TAF:

METAR-TAF

공항 :

버뮤다, 버뮤다

위도: 32-22N, 경도: 064-41W, 고도: 6m

현재 날씨관측

예보는 21분 전, 20:55시(UTC)에 발표되었습니다.
남서17kt
온도 22°C
습도 73%
기압 1020 hPa
시정 10km 이상
고도 2000ft 상공 구름 조금
고도 30000ft 상공 구름 조금

METAR: TXKF 192055Z 22017KT 9999 FEW020 FEW300 22/17 Q1020

시각: 18:16 (21:16 UTC)

예보

예보는 3 시간 33분 전, 17:43시(UTC)에 발표되었습니다.
예보 대상 시간: 19일 18시부터 20일 18시까지 (UTC)
남남서15kt
시정 10km 이상
고도 2500ft 상공 구름 보통
확률 40% :
일시적
20일 06시부터 20일 15시까지 (UTC)
남서18kt, 순간 최대 풍속 28kt
고도 1200ft 상공 구름 많음
시계 내 소나기
전환 중
20일 16시부터 20일 18시까지 (UTC)
15kt

TAF: TXKF 191743Z 1918/2018 21015KT 9999 SCT025 PROB40 TEMPO 2006/2015 23018G28KT VCSH BKN012 BECMG 2016/2018 26015KT

4,000개 이상의 공항 관측 자료 및 예보 (METAR 및 TAF 보고).

지도상에서 검색 가능한 기상관측소가 노란 점과 빨간 점으로 표시되어 있습니다.

기상관측소 명을 보려면 표시 위로 마우스를 이동하세요.

날씨 관측과 예보를 보려면 클릭하세요.

지도 변경 : 확대하려면 엑스 표시가 있는 녹색 버튼, 축소하려면 빼기 표시가 있는 녹색 버튼, 다음 페이지의 지도를 보려면 녹색 화살표를 클릭하세요.


METAR-TAF: